createdAt,value
2023-11-01T00:01:43.942Z,10.85
2023-11-01T00:04:11.526Z,10.81
2023-11-01T00:06:38.698Z,10.76
2023-11-01T00:09:05.910Z,10.76
2023-11-01T00:11:35.168Z,10.73
2023-11-01T00:14:03.779Z,10.65
2023-11-01T00:16:31.297Z,10.66
2023-11-01T00:18:59.095Z,10.59
2023-11-01T00:21:26.257Z,10.58
2023-11-01T00:23:53.437Z,10.63
2023-11-01T00:26:24.702Z,10.58
2023-11-01T00:28:53.829Z,10.56
2023-11-01T00:31:21.246Z,10.57
2023-11-01T00:33:48.465Z,10.53
2023-11-01T00:36:15.965Z,10.50
2023-11-01T00:38:43.519Z,10.50
2023-11-01T00:41:10.710Z,10.54
2023-11-01T00:43:38.097Z,10.57
2023-11-01T00:46:06.387Z,10.59
2023-11-01T00:48:33.519Z,10.55
2023-11-01T00:51:00.755Z,10.58
2023-11-01T00:53:28.329Z,10.58
2023-11-01T00:55:55.489Z,10.53
2023-11-01T00:58:23.891Z,10.50
2023-11-01T01:00:51.902Z,10.47
2023-11-01T01:03:19.230Z,10.45
2023-11-01T01:05:46.453Z,10.42
2023-11-01T01:08:13.931Z,10.53
2023-11-01T01:10:44.140Z,10.41
2023-11-01T01:13:11.329Z,10.37
2023-11-01T01:15:39.756Z,10.43
2023-11-01T01:18:07.480Z,10.39
2023-11-01T01:20:35.293Z,10.37
2023-11-01T01:23:04.109Z,10.38
2023-11-01T01:25:31.270Z,10.34
2023-11-01T01:27:58.429Z,10.31
2023-11-01T01:30:25.844Z,10.35
2023-11-01T01:32:53.019Z,10.46
2023-11-01T01:35:20.260Z,10.49
2023-11-01T01:37:47.713Z,10.51
2023-11-01T01:40:14.978Z,10.57
2023-11-01T01:42:42.687Z,10.50
2023-11-01T01:45:10.393Z,10.45
2023-11-01T01:47:37.835Z,10.45
2023-11-01T01:50:05.652Z,10.48
2023-11-01T01:52:33.204Z,10.38
2023-11-01T01:55:00.422Z,10.20
2023-11-01T01:57:29.774Z,10.15
2023-11-01T01:59:58.263Z,10.05
2023-11-01T02:02:25.743Z,10.12
2023-11-01T02:04:53.783Z,10.04
2023-11-01T02:07:21.033Z,10.04
2023-11-01T02:09:50.402Z,9.99
2023-11-01T02:12:18.288Z,9.96
2023-11-01T02:14:46.310Z,9.89
2023-11-01T02:17:13.506Z,9.88
2023-11-01T02:19:41.742Z,9.92
2023-11-01T02:22:09.081Z,9.99
2023-11-01T02:24:36.717Z,9.95
2023-11-01T02:27:05.161Z,9.93
2023-11-01T02:29:32.915Z,9.96
2023-11-01T02:32:04.503Z,9.90
2023-11-01T02:34:49.941Z,9.81
2023-11-01T02:37:17.525Z,9.78
2023-11-01T02:39:44.972Z,9.77
2023-11-01T02:42:12.127Z,9.74
2023-11-01T02:44:40.571Z,9.69
2023-11-01T02:47:07.988Z,9.68
2023-11-01T02:49:35.138Z,9.57
2023-11-01T02:52:02.237Z,9.59
2023-11-01T02:54:29.650Z,9.61
2023-11-01T02:57:00.772Z,9.54
2023-11-01T02:59:28.452Z,9.56
2023-11-01T03:01:57.251Z,9.52
2023-11-01T03:04:24.490Z,9.55
2023-11-01T03:06:51.660Z,9.56
2023-11-01T03:09:19.156Z,9.60
2023-11-01T03:11:46.301Z,9.65
2023-11-01T03:14:13.469Z,9.63
2023-11-01T03:16:42.129Z,9.65
2023-11-01T03:19:11.607Z,9.63
2023-11-01T03:21:41.824Z,9.64
2023-11-01T03:24:12.439Z,9.71
2023-11-01T03:26:41.345Z,9.71
2023-11-01T03:29:08.828Z,9.76
2023-11-01T03:31:36.478Z,9.81
2023-11-01T03:34:03.637Z,9.94
2023-11-01T03:36:31.415Z,10.00
2023-11-01T03:39:00.153Z,10.05
2023-11-01T03:41:27.309Z,10.11
2023-11-01T03:43:55.618Z,10.23
2023-11-01T03:46:23.416Z,10.28
2023-11-01T03:48:50.639Z,10.33
2023-11-01T03:51:19.016Z,10.46
2023-11-01T03:53:46.213Z,10.44
2023-11-01T03:56:14.108Z,10.42
2023-11-01T03:58:41.574Z,10.43
2023-11-01T04:01:09.274Z,10.35
2023-11-01T04:03:36.894Z,10.31
2023-11-01T04:06:04.414Z,10.35
2023-11-01T04:08:31.609Z,10.24
2023-11-01T04:10:59.566Z,10.16
2023-11-01T04:13:26.793Z,10.06
2023-11-01T04:15:55.238Z,9.98
2023-11-01T04:18:22.757Z,9.96
2023-11-01T04:20:49.961Z,9.95
2023-11-01T04:23:17.672Z,9.88
2023-11-01T04:25:45.288Z,9.90
2023-11-01T04:28:12.423Z,9.93
2023-11-01T04:30:40.281Z,9.91
2023-11-01T04:33:08.029Z,9.79
2023-11-01T04:35:36.119Z,9.70
2023-11-01T04:38:03.714Z,9.69
2023-11-01T04:40:33.065Z,9.61
2023-11-01T04:43:00.238Z,9.52
2023-11-01T04:45:29.215Z,9.44
2023-11-01T04:47:56.725Z,9.43
2023-11-01T04:50:24.165Z,9.41
2023-11-01T04:52:51.843Z,9.41
2023-11-01T04:55:19.266Z,9.39
2023-11-01T04:57:46.413Z,9.48
2023-11-01T05:00:17.311Z,9.47
2023-11-01T05:02:48.863Z,9.50
2023-11-01T05:05:16.246Z,9.52
2023-11-01T05:07:43.953Z,9.47
2023-11-01T05:10:14.131Z,9.41
2023-11-01T05:12:42.215Z,9.48
2023-11-01T05:15:10.084Z,9.45
2023-11-01T05:17:37.573Z,9.40
2023-11-01T05:20:05.287Z,9.32
2023-11-01T05:22:33.313Z,9.17
2023-11-01T05:25:01.382Z,9.03
2023-11-01T05:27:28.688Z,8.95
2023-11-01T05:29:56.365Z,8.90
2023-11-01T05:32:23.788Z,8.86
2023-11-01T05:34:50.919Z,8.82
2023-11-01T05:37:20.955Z,8.75
2023-11-01T05:39:48.347Z,8.74
2023-11-01T05:42:16.047Z,8.76
2023-11-01T05:44:43.773Z,8.84
2023-11-01T05:47:18.783Z,8.83
2023-11-01T05:49:46.553Z,8.86
2023-11-01T05:52:23.740Z,8.83
2023-11-01T05:54:51.416Z,8.80
2023-11-01T05:57:18.819Z,8.85
2023-11-01T05:59:48.208Z,8.87
2023-11-01T06:02:15.479Z,8.93
2023-11-01T06:04:42.975Z,8.90
2023-11-01T06:07:10.067Z,8.91
2023-11-01T06:09:37.197Z,8.99
2023-11-01T06:12:06.885Z,9.11
2023-11-01T06:14:34.127Z,9.20
2023-11-01T06:17:03.537Z,9.26
2023-11-01T06:19:33.002Z,9.33
2023-11-01T06:22:00.279Z,9.46
2023-11-01T06:24:27.970Z,9.55
2023-11-01T06:26:58.535Z,9.59
2023-11-01T06:29:28.617Z,9.61
2023-11-01T06:31:56.962Z,9.62
2023-11-01T06:34:24.241Z,9.63
2023-11-01T06:36:55.905Z,9.69
2023-11-01T06:39:25.060Z,9.69
2023-11-01T06:41:54.694Z,9.61
2023-11-01T06:44:21.880Z,9.66
2023-11-01T06:46:51.713Z,9.71
2023-11-01T06:49:18.883Z,9.79
2023-11-01T06:51:47.469Z,9.87
2023-11-01T06:54:15.003Z,9.91
2023-11-01T06:56:46.406Z,10.04
2023-11-01T06:59:14.604Z,10.05
2023-11-01T07:01:44.866Z,10.20
2023-11-01T07:04:15.726Z,10.31
2023-11-01T07:06:43.964Z,10.38
2023-11-01T07:09:12.022Z,10.56
2023-11-01T07:11:41.125Z,10.66
2023-11-01T07:14:10.782Z,10.72
2023-11-01T07:16:42.477Z,10.89
2023-11-01T07:19:10.615Z,11.07
2023-11-01T07:21:42.237Z,11.20
2023-11-01T07:24:09.800Z,11.32
2023-11-01T07:26:38.113Z,11.48
2023-11-01T07:29:12.844Z,11.49
2023-11-01T07:31:41.430Z,11.57
2023-11-01T07:34:09.568Z,11.63
2023-11-01T07:36:44.089Z,11.73
2023-11-01T07:39:11.691Z,11.82
2023-11-01T07:41:41.144Z,11.86
2023-11-01T07:44:09.558Z,11.86
2023-11-01T07:46:38.437Z,12.06
2023-11-01T07:49:05.578Z,12.02
2023-11-01T07:51:36.745Z,11.98
2023-11-01T07:54:04.535Z,11.94
2023-11-01T07:56:34.862Z,12.01
2023-11-01T07:59:02.091Z,12.07
2023-11-01T08:01:37.341Z,12.24
2023-11-01T08:04:05.162Z,12.35
2023-11-01T08:06:32.388Z,12.66
2023-11-01T08:09:00.210Z,12.82
2023-11-01T08:11:29.503Z,12.84
2023-11-01T08:13:57.621Z,12.78
2023-11-01T08:16:28.317Z,12.82
2023-11-01T08:19:00.542Z,13.08
2023-11-01T08:21:27.740Z,13.30
2023-11-01T08:23:54.947Z,13.31
2023-11-01T08:26:24.374Z,13.76
2023-11-01T08:28:51.556Z,13.77
2023-11-01T08:31:20.375Z,13.68
2023-11-01T08:33:47.911Z,13.42
2023-11-01T08:36:15.325Z,13.71
2023-11-01T08:38:43.839Z,13.68
2023-11-01T08:41:15.930Z,13.93
2023-11-01T08:43:45.316Z,14.11
2023-11-01T08:46:13.988Z,14.27
2023-11-01T08:48:41.777Z,14.34
2023-11-01T08:51:11.720Z,14.13
2023-11-01T08:53:40.002Z,14.08
2023-11-01T08:56:09.026Z,14.19
2023-11-01T08:58:36.218Z,14.38
2023-11-01T09:01:07.450Z,14.46
2023-11-01T09:03:35.283Z,14.67
2023-11-01T09:06:04.606Z,14.77
2023-11-01T09:08:32.070Z,15.05
2023-11-01T09:11:02.403Z,15.27
2023-11-01T09:13:29.540Z,15.25
2023-11-01T09:15:58.377Z,15.14
2023-11-01T09:18:26.584Z,14.94
2023-11-01T09:20:53.923Z,15.00
2023-11-01T09:23:21.456Z,15.13
2023-11-01T09:25:49.111Z,15.31
2023-11-01T09:28:16.404Z,15.07
2023-11-01T09:30:47.407Z,14.72
2023-11-01T09:33:16.071Z,14.71
2023-11-01T09:35:43.637Z,14.78
2023-11-01T09:38:10.813Z,14.55
2023-11-01T09:40:38.012Z,14.69
2023-11-01T09:43:08.521Z,14.75
2023-11-01T09:45:37.729Z,14.73
2023-11-01T09:48:07.050Z,14.62
2023-11-01T09:50:36.693Z,14.82
2023-11-01T09:53:04.123Z,14.88
2023-11-01T09:55:31.228Z,15.06
2023-11-01T09:57:59.710Z,15.26
2023-11-01T10:00:27.273Z,15.37
2023-11-01T10:02:55.113Z,15.56
2023-11-01T10:05:22.544Z,15.61
2023-11-01T10:07:49.667Z,15.68
2023-11-01T10:10:18.146Z,15.75
2023-11-01T10:12:46.176Z,15.76
2023-11-01T10:15:24.071Z,15.77
2023-11-01T10:17:55.386Z,15.96
2023-11-01T10:20:23.869Z,15.96
2023-11-01T10:22:51.374Z,16.07
2023-11-01T10:25:20.550Z,16.25
2023-11-01T10:27:53.599Z,16.32
2023-11-01T10:30:28.208Z,16.33
2023-11-01T10:32:59.614Z,15.91
2023-11-01T10:35:27.813Z,16.21
2023-11-01T10:38:00.069Z,16.33
2023-11-01T10:40:30.287Z,16.38
2023-11-01T10:42:59.892Z,16.51
2023-11-01T10:45:27.443Z,16.37
2023-11-01T10:47:55.254Z,16.40
2023-11-01T10:50:23.919Z,16.35
2023-11-01T10:52:51.958Z,16.47
2023-11-01T10:55:41.657Z,16.40
2023-11-01T10:58:15.545Z,16.45
2023-11-01T11:00:49.938Z,16.33
2023-11-01T11:03:32.708Z,16.52
2023-11-01T11:06:16.280Z,16.50
2023-11-01T11:09:24.315Z,16.60
2023-11-01T11:12:21.661Z,16.61
2023-11-01T11:14:52.673Z,16.72
2023-11-01T11:17:21.731Z,16.58
2023-11-01T11:20:12.480Z,16.67
2023-11-01T11:23:04.277Z,16.47
2023-11-01T11:25:38.298Z,16.45
2023-11-01T11:28:20.080Z,16.69
2023-11-01T11:31:17.020Z,16.84
2023-11-01T11:33:48.467Z,16.75
2023-11-01T11:36:18.053Z,16.73
2023-11-01T11:38:50.843Z,16.85
2023-11-01T11:41:23.978Z,17.04
2023-11-01T11:44:07.625Z,16.76
2023-11-01T11:46:43.267Z,16.82
2023-11-01T11:49:29.937Z,16.93
2023-11-01T11:51:59.474Z,17.10
2023-11-01T11:54:37.018Z,17.12
2023-11-01T11:57:11.517Z,17.16
2023-11-01T11:59:40.877Z,17.10
2023-11-01T12:02:19.312Z,17.12
2023-11-01T12:04:48.438Z,17.23
2023-11-01T12:07:22.531Z,17.28
2023-11-01T12:09:54.108Z,17.23
2023-11-01T12:12:22.447Z,17.01
2023-11-01T12:15:02.986Z,17.04
2023-11-01T12:17:32.562Z,16.99
2023-11-01T12:20:00.167Z,17.09
2023-11-01T12:22:27.363Z,16.82
2023-11-01T12:24:57.093Z,16.76
2023-11-01T12:27:32.205Z,16.80
2023-11-01T12:30:01.284Z,16.74
2023-11-01T12:32:34.773Z,16.82
2023-11-01T12:35:06.888Z,16.98
2023-11-01T12:37:36.433Z,17.07
2023-11-01T12:40:20.132Z,16.98
2023-11-01T12:42:51.015Z,17.05
2023-11-01T12:45:21.064Z,17.03
2023-11-01T12:47:53.809Z,16.98
2023-11-01T12:50:31.158Z,16.93
2023-11-01T12:53:00.975Z,16.92
2023-11-01T12:55:29.168Z,16.92
2023-11-01T12:57:58.069Z,16.91
2023-11-01T13:00:26.708Z,16.96
2023-11-01T13:02:54.388Z,17.02
2023-11-01T13:05:23.036Z,17.02
2023-11-01T13:07:52.315Z,17.08
2023-11-01T13:10:19.612Z,16.99
2023-11-01T13:12:49.303Z,16.91
2023-11-01T13:15:17.842Z,16.99
2023-11-01T13:17:45.608Z,16.90
2023-11-01T13:20:14.097Z,16.96
2023-11-01T13:22:41.905Z,16.75
2023-11-01T13:25:09.241Z,16.94
2023-11-01T13:27:37.333Z,16.98
2023-11-01T13:30:07.375Z,17.06
2023-11-01T13:32:35.055Z,17.05
2023-11-01T13:35:02.895Z,17.00
2023-11-01T13:37:33.132Z,16.92
2023-11-01T13:40:00.752Z,16.91
2023-11-01T13:42:28.492Z,17.01
2023-11-01T13:44:57.831Z,17.14
2023-11-01T13:47:26.554Z,17.07
2023-11-01T13:49:56.416Z,16.96
2023-11-01T13:52:24.574Z,16.83
2023-11-01T13:54:52.216Z,16.69
2023-11-01T13:57:22.134Z,16.74
2023-11-01T13:59:49.839Z,16.81
2023-11-01T14:02:17.614Z,16.78
2023-11-01T14:04:45.928Z,16.76
2023-11-01T14:07:13.162Z,16.75
2023-11-01T14:09:40.747Z,16.81
2023-11-01T14:12:09.415Z,16.92
2023-11-01T14:14:38.186Z,16.89
2023-11-01T14:17:06.268Z,16.93
2023-11-01T14:19:34.541Z,16.96
2023-11-01T14:22:01.737Z,17.00
2023-11-01T14:24:29.483Z,17.02
2023-11-01T14:26:58.237Z,16.93
2023-11-01T14:29:26.959Z,16.91
2023-11-01T14:31:55.199Z,16.91
2023-11-01T14:34:22.800Z,16.86
2023-11-01T14:36:55.970Z,16.81
2023-11-01T14:39:24.070Z,16.60
2023-11-01T14:41:51.694Z,16.41
2023-11-01T14:44:19.341Z,16.26
2023-11-01T14:46:47.349Z,15.91
2023-11-01T14:49:17.357Z,15.59
2023-11-01T14:51:45.309Z,15.45
2023-11-01T14:54:16.273Z,15.12
2023-11-01T14:56:45.339Z,14.85
2023-11-01T14:59:14.117Z,14.55
2023-11-01T15:01:51.957Z,14.42
2023-11-01T15:04:20.042Z,14.33
2023-11-01T15:06:50.609Z,13.95
2023-11-01T15:09:21.033Z,13.73
2023-11-01T15:11:50.020Z,13.53
2023-11-01T15:14:17.592Z,13.34
2023-11-01T15:16:45.236Z,13.12
2023-11-01T15:19:12.984Z,13.00
2023-11-01T15:21:45.931Z,12.94
2023-11-01T15:24:14.935Z,12.90
2023-11-01T15:26:46.537Z,12.81
2023-11-01T15:29:14.097Z,12.67
2023-11-01T15:31:42.112Z,12.55
2023-11-01T15:34:09.631Z,12.47
2023-11-01T15:36:38.014Z,12.37
2023-11-01T15:39:05.788Z,12.27
2023-11-01T15:41:33.036Z,12.20
2023-11-01T15:44:00.620Z,12.09
2023-11-01T15:46:31.352Z,12.00
2023-11-01T15:48:58.613Z,12.05
2023-11-01T15:51:27.609Z,12.00
2023-11-01T15:53:55.659Z,11.96
2023-11-01T15:56:22.921Z,11.86
2023-11-01T15:58:51.155Z,11.74
2023-11-01T16:01:20.854Z,11.68
2023-11-01T16:03:49.294Z,11.62
2023-11-01T16:06:19.278Z,11.68
2023-11-01T16:08:49.209Z,11.57
2023-11-01T16:11:24.611Z,11.51
2023-11-01T16:13:56.285Z,11.44
2023-11-01T16:16:23.980Z,11.36
2023-11-01T16:18:51.659Z,11.32
2023-11-01T16:21:18.839Z,11.22
2023-11-01T16:23:46.798Z,11.22
2023-11-01T16:26:16.208Z,11.12
2023-11-01T16:28:43.534Z,11.14
2023-11-01T16:31:14.182Z,11.17
2023-11-01T16:33:44.716Z,11.10
2023-11-01T16:36:13.165Z,11.12
2023-11-01T16:38:40.424Z,11.18
2023-11-01T16:41:09.722Z,11.09
2023-11-01T16:43:42.624Z,11.14
2023-11-01T16:46:10.309Z,11.20
2023-11-01T16:48:43.227Z,11.25
2023-11-01T16:51:12.356Z,11.33
2023-11-01T16:53:41.070Z,11.35
2023-11-01T16:56:08.857Z,11.40
2023-11-01T16:58:37.265Z,11.38
2023-11-01T17:01:12.981Z,11.34
2023-11-01T17:03:42.918Z,11.38
2023-11-01T17:06:11.562Z,11.44
2023-11-01T17:08:38.812Z,11.36
2023-11-01T17:11:05.958Z,11.31
2023-11-01T17:13:36.512Z,11.32
2023-11-01T17:16:04.101Z,11.33
2023-11-01T17:18:31.476Z,11.28
2023-11-01T17:21:01.348Z,11.28
2023-11-01T17:23:28.626Z,11.16
2023-11-01T17:26:00.380Z,11.13
2023-11-01T17:28:35.865Z,11.16
2023-11-01T17:31:11.397Z,11.11
2023-11-01T17:33:41.212Z,10.99
2023-11-01T17:36:21.172Z,10.99
2023-11-01T17:38:51.615Z,10.97
2023-11-01T17:41:41.713Z,10.91
2023-11-01T17:44:12.458Z,10.83
2023-11-01T17:46:46.975Z,10.76
2023-11-01T17:49:45.399Z,10.72
2023-11-01T17:52:27.029Z,10.59
2023-11-01T17:54:57.627Z,10.47
2023-11-01T17:57:25.023Z,10.45
2023-11-01T17:59:58.004Z,10.47
2023-11-01T18:02:34.041Z,10.43
2023-11-01T18:05:01.732Z,10.42
2023-11-01T18:07:29.015Z,10.32
2023-11-01T18:09:58.225Z,10.21
2023-11-01T18:12:30.482Z,10.16
2023-11-01T18:14:58.185Z,10.04
2023-11-01T18:17:27.685Z,10.08
2023-11-01T18:19:56.541Z,10.05
2023-11-01T18:22:42.480Z,10.02
2023-11-01T18:25:45.757Z,10.09
2023-11-01T18:28:12.883Z,10.18
2023-11-01T18:30:45.672Z,10.11
2023-11-01T18:33:19.997Z,10.14
2023-11-01T18:35:47.487Z,10.11
2023-11-01T18:38:47.880Z,10.02
2023-11-01T18:41:15.430Z,9.94
2023-11-01T18:43:43.690Z,9.95
2023-11-01T18:46:13.376Z,9.89
2023-11-01T18:48:47.359Z,9.84
2023-11-01T18:51:42.005Z,9.80
2023-11-01T18:54:17.415Z,9.81
2023-11-01T18:56:45.065Z,9.79
2023-11-01T18:59:13.497Z,9.78
2023-11-01T19:01:42.154Z,9.80
2023-11-01T19:04:14.411Z,9.79
2023-11-01T19:06:44.488Z,9.86
2023-11-01T19:09:15.796Z,9.73
2023-11-01T19:11:43.980Z,9.68
2023-11-01T19:14:14.809Z,9.65
2023-11-01T19:16:43.913Z,9.62
2023-11-01T19:19:20.155Z,9.56
2023-11-01T19:21:50.298Z,9.58
2023-11-01T19:24:29.326Z,9.61
2023-11-01T19:27:09.509Z,9.63
2023-11-01T19:29:43.382Z,9.60
2023-11-01T19:32:11.210Z,9.61
2023-11-01T19:34:41.104Z,9.52
2023-11-01T19:37:09.105Z,9.46
2023-11-01T19:39:42.037Z,9.37
2023-11-01T19:42:09.992Z,9.43
2023-11-01T19:44:40.561Z,9.38
2023-11-01T19:47:11.033Z,9.35
2023-11-01T19:49:39.458Z,9.39
2023-11-01T19:52:10.227Z,9.35
2023-11-01T19:54:39.214Z,9.27
2023-11-01T19:57:09.900Z,9.32
2023-11-01T19:59:41.584Z,9.20
2023-11-01T20:02:10.749Z,9.14
2023-11-01T20:04:41.816Z,9.13
2023-11-01T20:07:14.907Z,9.10
2023-11-01T20:09:43.837Z,9.16
2023-11-01T20:12:14.485Z,9.13
2023-11-01T20:14:44.656Z,9.15
2023-11-01T20:17:17.154Z,9.14
2023-11-01T20:19:44.848Z,9.12
2023-11-01T20:22:14.041Z,9.04
2023-11-01T20:24:43.303Z,9.03
2023-11-01T20:27:11.053Z,9.03
2023-11-01T20:29:42.125Z,8.88
2023-11-01T20:32:09.786Z,8.95
2023-11-01T20:34:37.555Z,8.99
2023-11-01T20:37:11.679Z,8.94
2023-11-01T20:39:56.717Z,8.89
2023-11-01T20:42:27.751Z,8.81
2023-11-01T20:44:59.287Z,8.81
2023-11-01T20:47:27.255Z,8.71
2023-11-01T20:50:03.256Z,8.67
2023-11-01T20:52:32.119Z,8.66
2023-11-01T20:55:02.502Z,8.63
2023-11-01T20:57:33.485Z,8.65
2023-11-01T21:00:01.805Z,8.67
2023-11-01T21:02:30.230Z,8.66
2023-11-01T21:04:58.872Z,8.66
2023-11-01T21:07:30.914Z,8.60
2023-11-01T21:10:04.241Z,8.59
2023-11-01T21:12:32.641Z,8.61
2023-11-01T21:15:08.832Z,8.56
2023-11-01T21:17:37.522Z,8.57
2023-11-01T21:20:10.698Z,8.64
2023-11-01T21:22:50.004Z,8.63
2023-11-01T21:25:18.481Z,8.63
2023-11-01T21:27:47.549Z,8.60
2023-11-01T21:30:16.273Z,8.60
2023-11-01T21:32:44.119Z,8.52
2023-11-01T21:35:12.381Z,8.49
2023-11-01T21:37:40.599Z,8.50
2023-11-01T21:40:08.643Z,8.51
2023-11-01T21:42:37.103Z,8.42
2023-11-01T21:45:20.207Z,8.41
2023-11-01T21:48:07.877Z,8.49
2023-11-01T21:50:50.237Z,8.55
2023-11-01T21:53:18.364Z,8.49
2023-11-01T21:55:56.393Z,8.53
2023-11-01T21:58:26.547Z,8.52
2023-11-01T22:01:07.306Z,8.64
2023-11-01T22:03:42.721Z,8.63
2023-11-01T22:06:19.610Z,8.69
2023-11-01T22:09:12.466Z,8.69
2023-11-01T22:11:44.036Z,8.68
2023-11-01T22:14:31.235Z,8.72
2023-11-01T22:17:03.168Z,8.66
2023-11-01T22:19:42.349Z,8.69
2023-11-01T22:22:34.734Z,8.68
2023-11-01T22:25:08.332Z,8.74
2023-11-01T22:27:39.622Z,8.71
2023-11-01T22:30:07.800Z,8.72
2023-11-01T22:32:34.960Z,8.69
2023-11-01T22:35:02.148Z,8.68
2023-11-01T22:37:29.723Z,8.60
2023-11-01T22:39:57.304Z,8.60
2023-11-01T22:42:32.039Z,8.54
2023-11-01T22:45:02.398Z,8.52
2023-11-01T22:47:31.193Z,8.48
2023-11-01T22:49:58.908Z,8.49
2023-11-01T22:52:27.292Z,8.52
2023-11-01T22:54:55.811Z,8.56
2023-11-01T22:57:22.986Z,8.60
2023-11-01T22:59:51.593Z,8.58
2023-11-01T23:02:18.785Z,8.58
2023-11-01T23:04:45.909Z,8.59
2023-11-01T23:07:15.504Z,8.61
2023-11-01T23:09:42.659Z,8.56
2023-11-01T23:12:12.388Z,8.57
2023-11-01T23:14:39.891Z,8.59
2023-11-01T23:17:11.610Z,8.57
2023-11-01T23:19:39.235Z,8.58
2023-11-01T23:22:10.295Z,8.57
2023-11-01T23:24:39.402Z,8.61
2023-11-01T23:27:07.015Z,8.66
2023-11-01T23:29:37.414Z,8.73
2023-11-01T23:32:11.853Z,8.74
2023-11-01T23:34:49.407Z,8.64
2023-11-01T23:37:38.076Z,8.67
2023-11-01T23:40:10.046Z,8.79
2023-11-01T23:42:38.219Z,8.93
2023-11-01T23:45:39.552Z,9.06
2023-11-01T23:48:07.547Z,9.07
2023-11-01T23:50:36.995Z,9.07
2023-11-01T23:53:05.735Z,9.13
2023-11-01T23:55:33.484Z,9.20
2023-11-01T23:58:01.579Z,9.22
